Time;durP1;ratioP1;P1;durP2;ratioP2;P2;SDS_P1;SDS_P2;PMS_P1;PMS_P2;Temp;Humidity;BMP_temperature;BMP_pressure;BME280_temperature;BME280_humidity;BME280_pressure;Samples;Min_cycle;Max_cycle;Signal;HPM_P1;HPM_P2
2024/01/09 00:01:59;;;;;;;;;;;;;;;-0.61;77.11;102088.44;5068662;28;19924;-58
2024/01/09 00:04:26;;;;;;;;;;;;;;;-0.63;76.51;102095.09;5069060;28;19931;-56
2024/01/09 00:06:54;;;;;;;;;;;;;;;-0.39;77.00;102097.19;5070070;28;20715;-55
2024/01/09 00:09:21;;;;;;;;;;;;;;;-0.64;76.49;102096.97;5070284;28;19920;-55
2024/01/09 00:11:48;;;;;;;;;;;;;;;-0.51;76.40;102085.31;5033679;28;19947;-54
2024/01/09 00:14:16;;;;;;;;;;;;;;;-0.33;75.72;102085.56;5068888;28;19924;-63
2024/01/09 00:16:44;;;;;;;;;;;;;;;-0.19;74.77;102084.47;5069679;28;19931;-62
2024/01/09 00:19:11;;;;;;;;;;;;;;;-0.16;75.02;102078.66;5068656;28;19931;-62
2024/01/09 00:21:39;;;;;;;;;;;;;;;-0.16;73.09;102078.66;5066353;28;19932;-63
2024/01/09 00:24:06;;;;;;;;;;;;;;;-0.37;73.60;102078.88;5069005;28;19932;-62
2024/01/09 00:26:42;;;;;;;;;;;;;;;-0.49;73.87;102075.13;5068448;28;20298;-62
2024/01/09 00:29:10;;;;;;;;;;;;;;;-0.48;74.06;102083.03;5083645;28;19921;-62
2024/01/09 00:31:37;;;;;;;;;;;;;;;-0.53;74.23;102077.41;5064789;28;19924;-62
2024/01/09 00:34:04;;;;;;;;;;;;;;;-0.47;73.73;102071.16;5063062;28;19939;-63
2024/01/09 00:36:31;;;;;;;;;;;;;;;-0.40;72.92;102063.88;5072201;28;19924;-63
2024/01/09 00:38:58;;;;;;;;;;;;;;;-0.35;72.54;102055.97;5065763;28;19944;-63
2024/01/09 00:41:25;;;;;;;;;;;;;;;-0.30;72.92;102063.47;5067201;28;20363;-62
2024/01/09 00:43:53;;;;;;;;;;;;;;;-0.38;72.31;102058.25;5079259;28;19924;-62
2024/01/09 00:46:20;;;;;;;;;;;;;;;-0.26;71.18;102062.81;5065678;28;19920;-61
2024/01/09 00:48:47;;;;;;;;;;;;;;;-0.45;71.05;102060.97;5057079;28;19929;-63
2024/01/09 00:51:15;;;;;;;;;;;;;;;-0.45;71.17;102055.56;5062221;28;20588;-62
2024/01/09 00:53:44;;;;;;;;;;;;;;;-0.30;71.28;102058.88;5060947;28;19934;-64
2024/01/09 00:56:13;;;;;;;;;;;;;;;-0.16;71.17;102057.00;5068046;28;19931;-62
2024/01/09 00:58:46;;;;;;;;;;;;;;;-0.51;70.25;102061.81;5065472;28;19924;-61
2024/01/09 01:01:13;;;;;;;;;;;;;;;-0.72;71.37;102056.59;5046332;28;19931;-63
2024/01/09 01:03:42;;;;;;;;;;;;;;;-0.58;71.15;102062.84;5060891;28;20054;-62
2024/01/09 01:06:09;;;;;;;;;;;;;;;-0.49;71.25;102058.91;5058689;28;20739;-62
2024/01/09 01:08:37;;;;;;;;;;;;;;;-0.60;70.75;102068.47;5065408;28;19924;-62
2024/01/09 01:11:08;;;;;;;;;;;;;;;-0.59;70.83;102062.00;5063492;28;19931;-62
2024/01/09 01:13:35;;;;;;;;;;;;;;;-0.57;71.23;102053.69;5089990;28;19925;-60
2024/01/09 01:16:04;;;;;;;;;;;;;;;-0.38;71.06;102058.25;5068735;28;19924;-64
2024/01/09 01:18:40;;;;;;;;;;;;;;;-0.63;70.54;102060.78;5062505;28;19935;-64
2024/01/09 01:21:10;;;;;;;;;;;;;;;-0.34;70.42;102054.09;5067354;28;19924;-62
2024/01/09 01:23:37;;;;;;;;;;;;;;;-0.66;69.76;102054.94;5083903;28;19924;-64
2024/01/09 01:26:04;;;;;;;;;;;;;;;-0.74;70.64;102052.41;5066092;28;19924;-62
2024/01/09 01:28:31;;;;;;;;;;;;;;;-0.77;71.05;102056.41;5068672;28;19939;-64
2024/01/09 01:31:05;;;;;;;;;;;;;;;-0.56;71.07;102049.94;5069885;28;19924;-65
2024/01/09 01:34:04;;;;;;;;;;;;;;;-0.34;69.49;102054.94;5073464;28;19931;-63
2024/01/09 01:36:32;;;;;;;;;;;;;;;-0.23;68.77;102048.88;5066977;28;19924;-62
2024/01/09 01:38:59;;;;;;;;;;;;;;;-0.15;68.76;102053.25;5061962;28;19924;-63
2024/01/09 01:41:26;;;;;;;;;;;;;;;-0.28;69.15;102045.97;5065075;28;19931;-63
2024/01/09 01:43:53;;;;;;;;;;;;;;;-0.26;69.34;102049.28;5067786;28;20398;-62
2024/01/09 01:46:20;;;;;;;;;;;;;;;-0.19;69.08;102060.09;5065690;28;19932;-63
2024/01/09 01:48:47;;;;;;;;;;;;;;;-0.29;69.11;102049.72;5065031;28;19936;-63
2024/01/09 01:51:15;;;;;;;;;;;;;;;-0.25;69.07;102059.09;5067339;28;19967;-62
2024/01/09 01:53:42;;;;;;;;;;;;;;;-0.14;68.86;102060.34;5063794;28;20390;-63
2024/01/09 01:56:09;;;;;;;;;;;;;;;0.00;68.72;102057.38;5050393;28;20401;-63
2024/01/09 01:58:40;;;;;;;;;;;;;;;0.22;68.23;102059.81;5092243;28;19924;-63
2024/01/09 02:01:07;;;;;;;;;;;;;;;0.21;67.21;102050.03;5074638;28;20361;-62
2024/01/09 02:03:35;;;;;;;;;;;;;;;-0.08;67.80;102057.59;5050744;28;20319;-58
2024/01/09 02:06:02;;;;;;;;;;;;;;;-0.21;67.71;102049.50;5080091;28;20573;-58
2024/01/09 02:08:41;;;;;;;;;;;;;;;-0.19;67.46;102060.09;5049269;28;19935;-55
2024/01/09 02:11:10;;;;;;;;;;;;;;;-0.35;68.57;102058.66;5066037;28;19999;-59
2024/01/09 02:13:49;;;;;;;;;;;;;;;-0.49;68.08;102057.00;5060779;28;19929;-55
2024/01/09 02:16:22;;;;;;;;;;;;;;;-0.51;67.90;102056.41;5070860;28;19920;-57
2024/01/09 02:19:02;;;;;;;;;;;;;;;-0.28;68.57;102054.06;5066553;28;19928;-58
2024/01/09 02:21:37;;;;;;;;;;;;;;;-0.42;68.32;102054.31;5070225;28;20571;-56
2024/01/09 02:24:08;;;;;;;;;;;;;;;-0.59;69.42;102051.19;5067784;28;19924;-56
2024/01/09 02:26:45;;;;;;;;;;;;;;;-0.33;69.12;102053.88;5068714;28;19924;-57
2024/01/09 02:29:31;;;;;;;;;;;;;;;-0.26;68.12;102043.88;5069640;28;19999;-58
2024/01/09 02:32:09;;;;;;;;;;;;;;;-0.14;68.42;102052.22;5069944;28;19924;-60
2024/01/09 02:34:37;;;;;;;;;;;;;;;-0.11;67.67;102043.66;5066327;28;19928;-54
2024/01/09 02:37:04;;;;;;;;;;;;;;;-0.12;67.20;102047.38;5066804;28;20449;-55
2024/01/09 02:39:31;;;;;;;;;;;;;;;-0.28;67.81;102043.25;5068501;28;19924;-57
2024/01/09 02:41:58;;;;;;;;;;;;;;;-0.22;68.49;102042.44;5065660;28;19924;-58
2024/01/09 02:44:25;;;;;;;;;;;;;;;-0.23;67.55;102051.56;5049618;28;19936;-55
2024/01/09 02:46:52;;;;;;;;;;;;;;;-0.29;67.95;102055.13;5051855;28;19925;-57
2024/01/09 02:49:19;;;;;;;;;;;;;;;-0.41;67.83;102045.16;5062384;28;19924;-58
2024/01/09 02:51:46;;;;;;;;;;;;;;;-0.46;67.71;102040.38;5071366;28;19924;-55
2024/01/09 02:54:14;;;;;;;;;;;;;;;-0.45;67.88;102043.88;5072300;28;20494;-56
2024/01/09 02:56:41;;;;;;;;;;;;;;;-0.49;67.58;102040.75;5070348;28;19931;-55
2024/01/09 02:59:08;;;;;;;;;;;;;;;-0.22;67.48;102041.59;5066361;28;19931;-57
2024/01/09 03:01:35;;;;;;;;;;;;;;;-0.51;68.32;102036.63;5071553;28;19939;-53
2024/01/09 03:04:02;;;;;;;;;;;;;;;-0.25;68.08;102044.72;5071258;28;19924;-53
2024/01/09 03:06:29;;;;;;;;;;;;;;;-0.31;67.20;102040.97;5071494;28;19930;-63
2024/01/09 03:08:56;;;;;;;;;;;;;;;-0.36;67.58;102034.53;5071839;28;19928;-62
2024/01/09 03:11:24;;;;;;;;;;;;;;;-0.29;67.83;102030.78;5070073;28;19925;-62
2024/01/09 03:13:51;;;;;;;;;;;;;;;-0.18;67.60;102035.56;5066025;28;19935;-63
2024/01/09 03:16:18;;;;;;;;;;;;;;;-0.38;67.45;102032.03;5071154;28;19931;-61
2024/01/09 03:18:46;;;;;;;;;;;;;;;-0.26;67.35;102022.22;5069232;28;19934;-62
2024/01/09 03:21:14;;;;;;;;;;;;;;;-0.17;67.68;102020.97;5066678;28;19924;-62
2024/01/09 03:23:41;;;;;;;;;;;;;;;-0.09;67.21;102020.72;5064404;28;19924;-63
2024/01/09 03:26:08;;;;;;;;;;;;;;;-0.22;67.20;102023.47;5071212;28;19924;-62
2024/01/09 03:28:36;;;;;;;;;;;;;;;-0.25;67.39;102042.00;5071217;28;19924;-62
2024/01/09 03:31:03;;;;;;;;;;;;;;;-0.18;66.62;102032.84;5069150;28;19946;-62
2024/01/09 03:33:30;;;;;;;;;;;;;;;-0.03;66.58;102027.16;5085348;28;19924;-64
2024/01/09 03:35:58;;;;;;;;;;;;;;;-0.03;67.07;102030.72;5067362;28;19920;-63
2024/01/09 03:38:25;;;;;;;;;;;;;;;0.30;65.87;102029.81;5068205;28;20137;-62
2024/01/09 03:40:52;;;;;;;;;;;;;;;0.12;66.06;102032.34;5070580;28;19931;-63
2024/01/09 03:43:19;;;;;;;;;;;;;;;-0.01;65.80;102038.63;5070346;28;19932;-62
2024/01/09 03:45:46;;;;;;;;;;;;;;;-0.11;65.79;102030.13;5070092;28;19924;-61
2024/01/09 03:48:13;;;;;;;;;;;;;;;-0.18;65.64;102026.59;5070180;28;19931;-63
2024/01/09 03:50:40;;;;;;;;;;;;;;;-0.24;65.80;102033.69;5066357;28;19925;-63
2024/01/09 03:53:07;;;;;;;;;;;;;;;-0.37;65.94;102017.47;5053088;28;19987;-63
2024/01/09 03:55:35;;;;;;;;;;;;;;;-0.19;65.50;102019.50;5071051;28;19924;-62
2024/01/09 03:58:02;;;;;;;;;;;;;;;-0.15;65.86;102013.47;5068816;28;19924;-62
2024/01/09 04:00:29;;;;;;;;;;;;;;;-0.21;65.45;102011.59;5069223;28;19959;-63
2024/01/09 04:02:56;;;;;;;;;;;;;;;-0.24;65.81;102012.03;5067701;28;20394;-62
2024/01/09 04:05:23;;;;;;;;;;;;;;;-0.22;66.25;102009.94;5087681;28;19925;-64
2024/01/09 04:08:15;;;;;;;;;;;;;;;-0.13;65.56;102015.97;5066200;28;19924;-63
2024/01/09 04:10:43;;;;;;;;;;;;;;;-0.36;65.56;102021.81;5068547;28;19924;-62
2024/01/09 04:13:09;;;;;;;;;;;;;;;-0.56;66.36;102014.78;5069864;28;19931;-62
2024/01/09 04:15:37;;;;;;;;;;;;;;;-0.35;66.34;102018.06;5067409;28;19935;-61
2024/01/09 04:18:04;;;;;;;;;;;;;;;-0.44;66.58;102022.06;5069555;28;19924;-61
2024/01/09 04:20:31;;;;;;;;;;;;;;;-0.63;67.11;102020.19;5068102;28;19924;-62
2024/01/09 04:22:58;;;;;;;;;;;;;;;-0.66;67.45;102017.06;5067515;28;19924;-65
2024/01/09 04:25:41;;;;;;;;;;;;;;;-0.44;67.07;102015.81;5067675;28;19931;-62
2024/01/09 04:28:08;;;;;;;;;;;;;;;-0.44;66.55;102022.06;5069711;28;19943;-63
2024/01/09 04:30:35;;;;;;;;;;;;;;;-0.33;67.22;102013.28;5069697;28;19940;-62
2024/01/09 04:33:02;;;;;;;;;;;;;;;-0.30;66.78;102017.44;5067320;28;19920;-63
2024/01/09 04:35:29;;;;;;;;;;;;;;;-0.17;65.78;102015.53;5068083;28;19942;-62
2024/01/09 04:37:56;;;;;;;;;;;;;;;-0.38;67.14;102013.06;5068193;28;19931;-62
2024/01/09 04:40:25;;;;;;;;;;;;;;;-0.37;67.43;102019.34;5066581;28;20382;-62
2024/01/09 04:42:52;;;;;;;;;;;;;;;-0.45;67.00;102020.38;5069742;28;19943;-64
2024/01/09 04:45:19;;;;;;;;;;;;;;;-0.19;66.90;102019.50;5073924;28;19928;-62
2024/01/09 04:47:46;;;;;;;;;;;;;;;-0.19;66.37;102019.50;5074085;28;20419;-67
2024/01/09 04:50:14;;;;;;;;;;;;;;;-0.28;66.02;102023.50;5067710;28;19971;-62
2024/01/09 04:52:41;;;;;;;;;;;;;;;-0.17;66.00;102023.66;5052628;28;19925;-62
2024/01/09 04:55:08;;;;;;;;;;;;;;;0.06;65.20;102023.19;5055483;28;19921;-61
2024/01/09 04:57:35;;;;;;;;;;;;;;;-0.01;65.62;102015.09;5047749;28;20387;-59
2024/01/09 05:00:04;;;;;;;;;;;;;;;-0.16;65.55;102021.81;5048946;28;19931;-58
2024/01/09 05:02:31;;;;;;;;;;;;;;;-0.18;66.16;102013.91;5062851;28;19946;-57
2024/01/09 05:04:58;;;;;;;;;;;;;;;-0.14;65.79;102023.25;5066726;28;19928;-59
2024/01/09 05:07:26;;;;;;;;;;;;;;;-0.37;66.05;102017.47;5066347;28;19927;-58
2024/01/09 05:09:53;;;;;;;;;;;;;;;-0.43;66.61;102017.44;5065878;28;19931;-61
2024/01/09 05:12:20;;;;;;;;;;;;;;;-0.37;66.33;102022.03;5050212;28;19935;-58
2024/01/09 05:14:47;;;;;;;;;;;;;;;-0.41;66.39;102016.22;5065547;28;19935;-58
2024/01/09 05:17:15;;;;;;;;;;;;;;;-0.21;65.73;102016.19;5051065;28;19932;-58
2024/01/09 05:19:42;;;;;;;;;;;;;;;-0.13;65.81;102011.38;5058747;28;20470;-56
2024/01/09 05:22:09;;;;;;;;;;;;;;;-0.19;66.57;102014.91;5063917;28;19932;-56
2024/01/09 05:24:37;;;;;;;;;;;;;;;-0.13;66.12;102008.69;5069319;28;20466;-56
2024/01/09 05:27:04;;;;;;;;;;;;;;;-0.33;66.18;102012.47;5064974;28;20285;-60
2024/01/09 05:29:31;;;;;;;;;;;;;;;-0.02;65.95;102005.28;5050327;28;19931;-57
2024/01/09 05:31:58;;;;;;;;;;;;;;;-0.15;65.37;102007.22;5068100;28;19951;-54
2024/01/09 05:34:25;;;;;;;;;;;;;;;-0.38;65.38;102015.78;5095394;28;19928;-57
2024/01/09 05:36:52;;;;;;;;;;;;;;;-0.35;65.88;102017.25;5069208;28;19924;-55
2024/01/09 05:39:20;;;;;;;;;;;;;;;-0.27;65.76;102009.75;5080732;28;19931;-56
2024/01/09 05:41:47;;;;;;;;;;;;;;;-0.23;65.52;102008.25;5064686;28;19935;-58
2024/01/09 05:44:14;;;;;;;;;;;;;;;-0.16;65.84;102008.25;5051260;28;20322;-56
2024/01/09 05:46:41;;;;;;;;;;;;;;;-0.13;65.96;101999.72;5055557;28;19928;-56
2024/01/09 05:49:08;;;;;;;;;;;;;;;-0.18;64.79;102007.63;5063816;28;19924;-55
2024/01/09 05:51:35;;;;;;;;;;;;;;;-0.20;64.27;102001.59;5052341;28;19924;-56
2024/01/09 05:54:03;;;;;;;;;;;;;;;-0.30;65.02;102001.22;5063209;28;20236;-57
2024/01/09 05:56:30;;;;;;;;;;;;;;;-0.18;64.84;102005.78;5084567;28;19924;-58
2024/01/09 05:58:57;;;;;;;;;;;;;;;-0.21;64.70;102008.88;5063148;28;19931;-60
2024/01/09 06:01:24;;;;;;;;;;;;;;;-0.18;64.84;101999.50;5065206;28;19924;-63
2024/01/09 06:03:51;;;;;;;;;;;;;;;-0.16;64.05;102009.06;5067552;28;19924;-62
2024/01/09 06:06:18;;;;;;;;;;;;;;;-0.29;64.28;102003.69;5059360;28;19924;-61
2024/01/09 06:08:48;;;;;;;;;;;;;;;-0.44;64.31;102005.81;5048728;28;19924;-64
2024/01/09 06:11:15;;;;;;;;;;;;;;;-0.40;64.60;102012.44;5054310;28;19924;-63
2024/01/09 06:13:42;;;;;;;;;;;;;;;-0.37;64.28;102016.63;5066832;28;19931;-63
2024/01/09 06:16:09;;;;;;;;;;;;;;;-0.26;64.04;102016.81;5066794;28;20362;-62
2024/01/09 06:18:36;;;;;;;;;;;;;;;-0.38;63.69;102018.50;5061717;28;19925;-61
2024/01/09 06:21:04;;;;;;;;;;;;;;;-0.41;63.61;102024.34;5066476;28;20604;-62
2024/01/09 06:23:31;;;;;;;;;;;;;;;-0.44;64.69;102021.22;5049924;28;19932;-62
2024/01/09 06:25:59;;;;;;;;;;;;;;;-0.43;64.26;102014.75;5061576;28;19924;-63
2024/01/09 06:28:26;;;;;;;;;;;;;;;-0.39;63.69;102013.28;5089539;28;19924;-64
2024/01/09 06:30:53;;;;;;;;;;;;;;;-0.34;63.68;102008.06;5071060;28;19923;-63
2024/01/09 06:33:20;;;;;;;;;;;;;;;-0.45;64.26;102014.13;5071688;28;19924;-62
2024/01/09 06:35:47;;;;;;;;;;;;;;;-0.34;64.08;102014.34;5069755;28;19992;-64
2024/01/09 06:38:15;;;;;;;;;;;;;;;-0.23;64.21;102013.66;5064652;28;19924;-62
2024/01/09 06:40:42;;;;;;;;;;;;;;;-0.23;63.54;102019.09;5064571;28;19924;-62
2024/01/09 06:43:09;;;;;;;;;;;;;;;-0.68;64.76;102019.97;5068557;28;20286;-63
2024/01/09 06:45:36;;;;;;;;;;;;;;;-0.54;64.71;102020.81;5070210;28;19931;-63
2024/01/09 06:48:03;;;;;;;;;;;;;;;-0.54;64.60;102015.41;5067912;28;19924;-63
2024/01/09 06:50:30;;;;;;;;;;;;;;;-0.57;65.22;102018.50;5070844;28;19931;-64
2024/01/09 06:53:04;;;;;;;;;;;;;;;-0.48;65.31;102017.25;5071735;28;20422;-56
2024/01/09 06:55:32;;;;;;;;;;;;;;;-0.27;64.31;102022.44;5070177;28;19935;-56
2024/01/09 06:58:01;;;;;;;;;;;;;;;-0.37;64.78;102017.47;5071615;28;19924;-57
2024/01/09 07:00:29;;;;;;;;;;;;;;;-0.49;65.10;102021.81;5065711;28;19931;-59
2024/01/09 07:02:56;;;;;;;;;;;;;;;-0.49;65.32;102011.00;5067220;28;19931;-58
2024/01/09 07:05:24;;;;;;;;;;;;;;;-0.45;65.84;102023.06;5070709;28;19925;-54
2024/01/09 07:07:52;;;;;;;;;;;;;;;-0.17;66.39;102022.81;5071960;28;19931;-57
2024/01/09 07:10:19;;;;;;;;;;;;;;;-0.12;64.08;102015.75;5072196;28;20141;-59
2024/01/09 07:12:46;;;;;;;;;;;;;;;-0.41;64.36;102018.91;5070743;28;19924;-61
2024/01/09 07:15:14;;;;;;;;;;;;;;;-0.27;65.81;102017.88;5072631;28;20760;-59
2024/01/09 07:17:55;;;;;;;;;;;;;;;0.08;65.32;102014.84;5073546;28;19925;-65
2024/01/09 07:21:03;;;;;;;;;;;;;;;-0.01;65.00;102023.22;5065415;28;20268;-65
2024/01/09 07:23:32;;;;;;;;;;;;;;;0.23;65.58;102021.69;5091326;28;19924;-63
2024/01/09 07:25:59;;;;;;;;;;;;;;;0.33;65.14;102013.09;5071350;28;19931;-65
2024/01/09 07:28:27;;;;;;;;;;;;;;;0.25;64.15;102024.16;5072024;28;19924;-63
2024/01/09 07:30:58;;;;;;;;;;;;;;;0.17;64.41;102019.84;5071701;28;19924;-64
2024/01/09 07:33:35;;;;;;;;;;;;;;;0.14;64.16;102004.00;5071420;28;19921;-65
2024/01/09 07:36:26;;;;;;;;;;;;;;;0.34;64.62;102025.59;5098921;28;20398;-62
2024/01/09 07:38:54;;;;;;;;;;;;;;;0.48;64.41;102016.38;5070308;28;19940;-64
2024/01/09 07:41:21;;;;;;;;;;;;;;;0.10;63.54;102032.56;5052762;28;19924;-64
2024/01/09 07:43:48;;;;;;;;;;;;;;;0.15;64.62;102024.63;5067860;28;19932;-63
2024/01/09 07:46:15;;;;;;;;;;;;;;;0.40;65.28;102024.75;5052206;28;19932;-63
2024/01/09 07:52:12;;;;;;;;;;;;;;;0.43;63.92;102027.03;5055203;28;19927;-59
2024/01/09 07:54:59;;;;;;;;;;;;;;;0.21;64.69;102025.66;5080077;28;20446;-64
2024/01/09 07:57:26;;;;;;;;;;;;;;;0.34;64.73;102025.59;5069939;28;20302;-63
2024/01/09 07:59:58;;;;;;;;;;;;;;;0.45;65.25;102033.06;5067790;28;19924;-62
2024/01/09 08:02:43;;;;;;;;;;;;;;;0.18;64.29;102032.31;5053988;28;19932;-64
2024/01/09 08:05:20;;;;;;;;;;;;;;;0.25;64.96;102035.84;5103512;28;19920;-67
2024/01/09 08:07:58;;;;;;;;;;;;;;;0.42;64.97;102031.59;5047168;28;19921;-65
2024/01/09 08:10:35;;;;;;;;;;;;;;;0.01;64.17;102036.56;5049482;28;19925;-64
2024/01/09 08:13:03;;;;;;;;;;;;;;;0.15;65.31;102031.91;5052594;28;19925;-63
2024/01/09 08:15:30;;;;;;;;;;;;;;;0.08;65.00;102028.41;5067875;28;19935;-63
2024/01/09 08:17:58;;;;;;;;;;;;;;;-0.25;65.23;102039.31;5068474;28;20298;-62
2024/01/09 08:20:25;;;;;;;;;;;;;;;-0.33;65.94;102040.34;5062853;28;19924;-63
2024/01/09 08:22:52;;;;;;;;;;;;;;;-0.16;66.20;102041.56;5060798;28;19925;-63
2024/01/09 08:25:19;;;;;;;;;;;;;;;-0.05;64.71;102043.63;5053090;28;19935;-63
2024/01/09 08:27:47;;;;;;;;;;;;;;;-0.26;64.32;102043.88;5050351;28;19928;-62
2024/01/09 08:30:14;;;;;;;;;;;;;;;-0.22;65.87;102050.53;5069542;28;20692;-63
2024/01/09 08:32:42;;;;;;;;;;;;;;;-0.55;65.62;102055.16;5058131;28;19931;-63
2024/01/09 08:35:09;;;;;;;;;;;;;;;-0.14;66.28;102052.22;5063709;28;19925;-59
2024/01/09 08:37:36;;;;;;;;;;;;;;;-0.40;65.90;102050.34;5053884;28;19924;-62
2024/01/09 08:40:04;;;;;;;;;;;;;;;-0.02;66.87;102050.53;5057295;28;19931;-58
2024/01/09 08:42:31;;;;;;;;;;;;;;;0.03;64.64;102056.94;5083863;28;19936;-64
2024/01/09 08:45:00;;;;;;;;;;;;;;;0.06;64.36;102057.56;5065625;28;19931;-62
2024/01/09 08:47:28;;;;;;;;;;;;;;;0.25;63.85;102054.81;5064569;28;19924;-63
2024/01/09 08:49:55;;;;;;;;;;;;;;;0.40;63.85;102054.56;5059649;28;19924;-63
2024/01/09 08:52:25;;;;;;;;;;;;;;;0.46;63.27;102059.13;5088126;28;20011;-63
2024/01/09 08:54:53;;;;;;;;;;;;;;;-0.31;63.66;102068.03;5063360;28;19931;-66
2024/01/09 08:57:20;;;;;;;;;;;;;;;-0.16;65.13;102070.53;5082806;28;19959;-62
2024/01/09 08:59:48;;;;;;;;;;;;;;;0.17;63.81;102057.78;5101925;28;20298;-63
2024/01/09 09:02:15;;;;;;;;;;;;;;;-0.03;64.21;102057.81;5054554;28;19924;-63
2024/01/09 09:04:42;;;;;;;;;;;;;;;-0.07;64.23;102064.69;5090607;28;19925;-62
2024/01/09 09:07:09;;;;;;;;;;;;;;;-0.19;63.54;102063.66;5066375;28;19932;-63
2024/01/09 09:09:36;;;;;;;;;;;;;;;-0.37;64.25;102063.47;5069078;28;19925;-62
2024/01/09 09:12:03;;;;;;;;;;;;;;;-0.22;64.12;102068.66;5069238;28;19931;-63
2024/01/09 09:14:31;;;;;;;;;;;;;;;-0.08;63.90;102062.19;5067273;28;19924;-62
2024/01/09 09:16:58;;;;;;;;;;;;;;;0.19;62.97;102063.81;5067734;28;19924;-61
2024/01/09 09:19:30;;;;;;;;;;;;;;;-0.23;62.96;102061.59;5060862;28;19932;-58
2024/01/09 09:21:57;;;;;;;;;;;;;;;-0.23;63.66;102061.59;5085774;28;19924;-62
2024/01/09 09:24:25;;;;;;;;;;;;;;;0.02;64.00;102059.06;5068422;28;19924;-62
2024/01/09 09:26:52;;;;;;;;;;;;;;;-0.01;63.83;102060.28;5068222;28;19928;-61
2024/01/09 09:29:19;;;;;;;;;;;;;;;-0.28;62.76;102064.91;5068193;28;19930;-63
2024/01/09 09:32:02;;;;;;;;;;;;;;;-0.30;63.00;102061.56;5069024;28;19924;-57
2024/01/09 09:34:29;;;;;;;;;;;;;;;-0.69;62.63;102068.88;5063540;28;19934;-55
2024/01/09 09:36:56;;;;;;;;;;;;;;;-0.47;64.12;102060.34;5063375;28;19924;-59
2024/01/09 09:39:23;;;;;;;;;;;;;;;-0.80;63.82;102067.59;5068403;28;20307;-56
2024/01/09 09:41:53;;;;;;;;;;;;;;;-0.83;64.24;102059.06;5068919;28;19931;-58
2024/01/09 09:44:21;;;;;;;;;;;;;;;-0.35;64.18;102050.53;5067133;28;19999;-57
2024/01/09 09:46:48;;;;;;;;;;;;;;;-0.28;62.47;102058.69;5065978;28;19963;-57
2024/01/09 09:49:15;;;;;;;;;;;;;;;-0.51;62.90;102059.09;5084721;28;19959;-54
2024/01/09 09:51:43;;;;;;;;;;;;;;;-0.50;62.97;102062.63;5063573;28;19929;-56
2024/01/09 09:54:10;;;;;;;;;;;;;;;-0.38;63.27;102059.09;5048397;28;20435;-58
2024/01/09 09:56:39;;;;;;;;;;;;;;;-0.17;62.65;102058.03;5056960;28;19931;-56
2024/01/09 09:59:10;;;;;;;;;;;;;;;-0.16;61.95;102055.09;5071148;28;20151;-56
2024/01/09 10:01:41;;;;;;;;;;;;;;;-0.57;61.27;102054.50;5103701;28;19935;-58
2024/01/09 10:04:27;;;;;;;;;;;;;;;-0.39;62.22;102057.44;5071535;28;19924;-59
2024/01/09 10:06:56;;;;;;;;;;;;;;;-0.84;62.29;102060.13;5069597;28;19955;-56
2024/01/09 10:09:28;;;;;;;;;;;;;;;-0.83;62.90;102064.47;5065251;28;19924;-62
2024/01/09 10:11:55;;;;;;;;;;;;;;;-0.46;63.15;102064.72;5054348;28;19932;-54
2024/01/09 10:14:22;;;;;;;;;;;;;;;-0.56;62.70;102058.06;5080502;28;19928;-53
2024/01/09 10:16:50;;;;;;;;;;;;;;;-0.72;62.35;102066.56;5084365;28;19928;-57
2024/01/09 10:19:17;;;;;;;;;;;;;;;-0.72;61.87;102053.91;5072208;28;19928;-52
2024/01/09 10:21:44;;;;;;;;;;;;;;;-0.64;62.82;102059.09;5071234;28;19924;-52
2024/01/09 10:24:11;;;;;;;;;;;;;;;-0.86;62.13;102054.91;5072000;28;20405;-59
2024/01/09 10:26:39;;;;;;;;;;;;;;;-0.95;61.86;102058.84;5067440;28;19925;-55
2024/01/09 10:29:10;;;;;;;;;;;;;;;-0.74;62.36;102055.97;5066076;28;20295;-55
2024/01/09 10:31:38;;;;;;;;;;;;;;;-0.40;61.73;102050.34;5072000;28;19931;-54
2024/01/09 10:34:06;;;;;;;;;;;;;;;-0.17;61.07;102049.91;5053118;28;19924;-54
2024/01/09 10:36:33;;;;;;;;;;;;;;;-0.10;60.27;102053.44;5072119;28;19955;-56
2024/01/09 10:39:04;;;;;;;;;;;;;;;-0.63;61.01;102047.25;5071258;28;19924;-57
2024/01/09 10:41:31;;;;;;;;;;;;;;;-0.43;60.63;102042.66;5071910;28;19932;-58
2024/01/09 10:43:59;;;;;;;;;;;;;;;-0.22;61.21;102036.16;5103581;28;19924;-59
2024/01/09 10:46:26;;;;;;;;;;;;;;;-0.40;60.59;102038.72;5071734;28;19924;-54
2024/01/09 10:48:54;;;;;;;;;;;;;;;-0.64;61.01;102045.56;5053908;28;19931;-56
2024/01/09 10:51:22;;;;;;;;;;;;;;;-0.53;60.31;102036.00;5063366;28;19931;-56
2024/01/09 10:53:50;;;;;;;;;;;;;;;-0.51;59.92;102039.31;5055131;28;19947;-55
2024/01/09 10:56:18;;;;;;;;;;;;;;;-0.51;60.65;102040.16;5050589;28;19931;-58
2024/01/09 10:58:45;;;;;;;;;;;;;;;-0.55;60.05;102032.66;5058715;28;19924;-58
2024/01/09 11:01:13;;;;;;;;;;;;;;;-0.25;60.39;102034.72;5065181;28;19935;-55
2024/01/09 11:03:40;;;;;;;;;;;;;;;0.02;59.50;102032.78;5059220;28;19925;-57
2024/01/09 11:06:08;;;;;;;;;;;;;;;-0.56;59.24;102033.72;5083449;28;19925;-55
2024/01/09 11:08:36;;;;;;;;;;;;;;;-0.41;60.49;102028.91;5081462;28;19959;-57
2024/01/09 11:11:04;;;;;;;;;;;;;;;-0.21;59.48;102024.31;5060408;28;19925;-56
2024/01/09 11:13:32;;;;;;;;;;;;;;;-0.40;59.37;102028.69;5069210;28;19924;-56
2024/01/09 11:15:59;;;;;;;;;;;;;;;-0.20;59.58;102031.38;5069941;28;19924;-55
2024/01/09 11:18:27;;;;;;;;;;;;;;;-0.53;59.68;102033.28;5070582;28;19935;-55
2024/01/09 11:21:02;;;;;;;;;;;;;;;-0.61;60.17;102025.38;5053039;28;21066;-50
2024/01/09 11:23:42;;;;;;;;;;;;;;;-0.63;59.47;102022.91;5069475;28;19924;-58
2024/01/09 11:26:10;;;;;;;;;;;;;;;-0.19;60.08;102030.31;5071203;28;19932;-58
2024/01/09 11:28:37;;;;;;;;;;;;;;;0.07;59.22;102024.03;5068840;28;20386;-57
2024/01/09 11:31:05;;;;;;;;;;;;;;;-0.10;58.04;102024.50;5071087;28;19925;-58
2024/01/09 11:33:32;;;;;;;;;;;;;;;0.06;57.45;102025.91;5070831;28;19933;-58
2024/01/09 11:36:05;;;;;;;;;;;;;;;-0.04;57.57;102037.19;5070443;28;19939;-58
2024/01/09 11:38:32;;;;;;;;;;;;;;;0.07;57.75;102043.81;5070440;28;19954;-62
2024/01/09 11:41:03;;;;;;;;;;;;;;;-0.21;58.15;102040.56;5070212;28;19931;-55
2024/01/09 11:43:50;;;;;;;;;;;;;;;-0.44;59.03;102030.19;5070655;28;19924;-57
2024/01/09 11:46:17;;;;;;;;;;;;;;;-0.41;58.47;102031.63;5063945;28;19924;-53
2024/01/09 11:48:45;;;;;;;;;;;;;;;-0.45;59.35;102033.91;5069318;28;19931;-57
2024/01/09 11:51:12;;;;;;;;;;;;;;;-0.61;59.11;102020.78;5070748;28;19924;-60
2024/01/09 11:53:39;;;;;;;;;;;;;;;-0.46;59.37;102029.53;5070574;28;19954;-55
2024/01/09 11:56:17;;;;;;;;;;;;;;;-0.53;58.85;102022.47;5085998;28;19924;-55
2024/01/09 11:58:50;;;;;;;;;;;;;;;-0.73;58.20;102027.06;5066463;28;19928;-57
2024/01/09 12:01:23;;;;;;;;;;;;;;;-0.90;59.13;102021.19;5032131;28;19947;-55
2024/01/09 12:03:51;;;;;;;;;;;;;;;-0.78;59.23;102022.25;5057468;28;19924;-56
2024/01/09 12:06:19;;;;;;;;;;;;;;;-0.96;59.55;102024.75;5070477;28;20477;-56
2024/01/09 12:08:46;;;;;;;;;;;;;;;-0.72;58.80;102017.88;5065289;28;19925;-56
2024/01/09 12:11:14;;;;;;;;;;;;;;;-0.66;58.21;102015.19;5050306;28;19928;-57
2024/01/09 12:13:42;;;;;;;;;;;;;;;-0.64;57.88;102015.81;5073024;28;19935;-59
2024/01/09 12:16:16;;;;;;;;;;;;;;;-0.68;58.25;102011.84;5073554;28;20023;-54
2024/01/09 12:18:47;;;;;;;;;;;;;;;-0.65;58.53;102006.03;5036857;28;19924;-56
2024/01/09 12:21:15;;;;;;;;;;;;;;;-0.53;59.28;102008.94;5051015;28;19931;-58
2024/01/09 12:23:42;;;;;;;;;;;;;;;-0.51;58.65;101999.56;5068184;28;19924;-57
2024/01/09 12:26:29;;;;;;;;;;;;;;;-0.93;58.55;101997.28;5049869;28;19925;-61
2024/01/09 12:28:57;;;;;;;;;;;;;;;-1.06;58.54;102010.78;5064586;28;19936;-57
2024/01/09 12:31:25;;;;;;;;;;;;;;;-0.81;58.69;101995.63;5032189;28;19924;-55
2024/01/09 12:33:55;;;;;;;;;;;;;;;-0.79;58.82;102003.53;5065169;28;19925;-58
2024/01/09 12:36:25;;;;;;;;;;;;;;;-0.93;58.44;102001.84;5051356;28;19925;-52
2024/01/09 12:38:52;;;;;;;;;;;;;;;-0.72;58.07;101988.97;5067943;28;19925;-57
2024/01/09 12:41:21;;;;;;;;;;;;;;;-0.56;58.39;101996.63;5060301;28;19924;-57
2024/01/09 12:43:48;;;;;;;;;;;;;;;-0.35;57.82;101984.78;5068863;28;19924;-55
2024/01/09 12:46:16;;;;;;;;;;;;;;;-0.69;58.00;101990.41;5069188;28;20305;-57
2024/01/09 12:48:46;;;;;;;;;;;;;;;-0.51;57.73;101990.63;5069189;28;19931;-53
2024/01/09 12:51:14;;;;;;;;;;;;;;;-0.58;57.47;101979.81;5069077;28;19928;-56